SBOSBO SCL / SCEL
Speedbird OnlineSpeedbird Online SCL / SCEL

Comodoro Arturo Merino Benítez International Airport
22:52 21.1°C

Location Santiago, Chile
Latitude: -33.393001556396484
Longitude: -70.78579711914062
Web Airport Website | Wikipedia
Altitude 474 Meter / 1555 Feet
Distance 11,689 KM / 7,263 Miles
from London.
Time Zone UTC -3 hours (America/Santiago)
Codes IATA: SCL
ICAO: SCEL
Currency £1 equals CLP 995.05
Runways
RunwayLength (m)Surface
17L3750Asphalt
17R3750Asphalt
35L3750Asphalt
35R3750Asphalt
Radio
TypeDescriptionFrequency
APPSANTIAGO APP126.3
APPSANTIAGO APP128.1
ATISATIS132.1
CLDCLNC DEL121.7
CNTRSANTIAGO CNTR129.7
GNDGND122.2
RDOSANTIAGO RDO121.5
RDOSANTIAGO RDO664.9
TWRSANTIAGO TWR118.1
Live ATC
METAR SCEL 270100Z 15009KT CAVOK 21/M02 Q1013 NOSIG
TAF TAF SCEL 262207Z 2700/2724 18004KT CAVOK TX31/2719Z TN14/2710Z TEMPO 2708/2714 VRB02KT BECMG 2717/2719 22015KT
Weather As Of 26 Jan 2023 22:52
Description Clear sky
Wind 17 km/h from South-East (150°)
Cloud Cover 0%
Precipitation Rain: none, Snow: none
Sunrise 06:59
Sunset 20:51
Lounges Andes International Lounge, International Terminal
LATAM Lounge Santiago , Terminal 2 - International Departures
Rotations During the last 90 days there were
35 flights from LHR
35 flights to LHR



Support Speedbird Online

© 2017-2023 Speedbird Online